Time;durP1;ratioP1;P1;durP2;ratioP2;P2;SDS_P1;SDS_P2;PMS_P1;PMS_P2;Temp;Humidity;BMP_temperature;BMP_pressure;BME280_temperature;BME280_humidity;BME280_pressure;Samples;Min_cycle;Max_cycle;Signal;HPM_P1;HPM_P2
2022/02/09 00:00:25;;;;;;;;;;;;;;;;;;1031020;28;1050;-41
2022/02/09 00:01:22;;;;;;;;;;;;;;;;;;1030658;28;946;-40
2022/02/09 00:02:48;;;;;;;;;;;;;;;;;;1030896;28;1373;-41
2022/02/09 00:03:21;;;;;;;;;;;;;;;;;;1031171;28;934;-41
2022/02/09 00:04:06;;;;;;;;;;;;;;;;;;1030684;28;1041;-41
2022/02/09 00:04:51;;;;;;;;;;;;;;;;;;1030345;28;1299;-41
2022/02/09 00:05:41;;;;;;;;;;;;;;;;;;1030918;28;1010;-40
2022/02/09 00:06:17;;;;;;;;;;;;;;;;;;1030994;28;1009;-41
2022/02/09 00:07:24;;;;;;;;;;;;;;;;;;1030936;28;954;-40
2022/02/09 00:08:25;;;;;;;;;;;;;;;;;;1030853;28;963;-41
2022/02/09 00:08:57;;;;;;;;;;;;;;;;;;1031032;28;1910;-41
2022/02/09 00:09:27;;;;;;;;;;;;;;;;;;1030888;28;899;-41
2022/02/09 00:09:58;;;;;;;;;;;;;;;;;;1030965;28;1009;-41
2022/02/09 00:10:30;;;;;;;;;;;;;;;;;;1030795;28;879;-41
2022/02/09 00:11:04;;;;;;;;;;;;;;;;;;1031044;28;950;-41
2022/02/09 00:11:51;;;;;;;;;;;;;;;;;;1030956;28;923;-41
2022/02/09 00:12:32;;;;;;;;;;;;;;;;;;1031031;28;938;-41
2022/02/09 00:13:52;;;;;;;;;;;;;;;;;;1031128;28;902;-41
2022/02/09 00:14:33;;;;;;;;;;;;;;;;;;1030844;28;957;-40
2022/02/09 00:18:26;;;;;;;;;;;;;;;;;;1030985;28;1029;-41
2022/02/09 00:19:08;;;;;;;;;;;;;;;;;;1031003;28;906;-42
2022/02/09 00:25:29;;;;;;;;;;;;;;;;;;1022048;29;812;-41
2022/02/09 00:29:40;;;;;;;;;;;;;;;;;;1030969;28;811;-41
2022/02/09 00:32:07;;;;;;;;;;;;;;;;;;1030665;28;898;-41
2022/02/09 00:36:39;;;;;;;;;;;;;;;;;;1030819;28;1054;-41
2022/02/09 00:37:34;;;;;;;;;;;;;;;;;;1030762;28;1020;-41
2022/02/09 00:39:28;;;;;;;;;;;;;;;;;;1030842;28;965;-42
2022/02/09 00:40:14;;;;;;;;;;;;;;;;;;1030961;28;981;-40
2022/02/09 01:39:04;;;;;;;;;;;;;;;;;;1026510;28;819;-41
2022/02/09 01:39:53;;;;;;;;;;;;;;;;;;1026800;28;938;-39
2022/02/09 01:44:33;;;;;;;;;;;;;;;;;;1026662;28;943;-40
2022/02/09 01:55:33;;;;;;;;;;;;;;;;;;1026681;28;938;-40
2022/02/09 01:56:03;;;;;;;;;;;;;;;;;;1026697;28;983;-41
2022/02/09 01:56:34;;;;;;;;;;;;;;;;;;1026511;28;1006;-41
2022/02/09 01:57:07;;;;;;;;;;;;;;;;;;1026785;28;780;-40
2022/02/09 01:57:37;;;;;;;;;;;;;;;;;;1026646;28;943;-40
2022/02/09 01:58:08;;;;;;;;;;;;;;;;;;1026633;28;879;-40
2022/02/09 01:58:38;;;;;;;;;;;;;;;;;;1026790;28;977;-41
2022/02/09 01:59:09;;;;;;;;;;;;;;;;;;1026455;28;807;-40
2022/02/09 01:59:39;;;;;;;;;;;;;;;;;;1026836;28;1014;-40
2022/02/09 02:00:10;;;;;;;;;;;;;;;;;;1034101;28;1595;-40
2022/02/09 02:00:40;;;;;;;;;;;;;;;;;;1034438;28;1168;-41
2022/02/09 02:01:10;;;;;;;;;;;;;;;;;;1034271;28;923;-41
2022/02/09 02:01:40;;;;;;;;;;;;;;;;;;1034362;28;945;-41
2022/02/09 02:02:11;;;;;;;;;;;;;;;;;;1026707;28;910;-41
2022/02/09 02:02:42;;;;;;;;;;;;;;;;;;1026657;28;1621;-40
2022/02/09 02:03:12;;;;;;;;;;;;;;;;;;1026621;28;985;-41
2022/02/09 02:03:45;;;;;;;;;;;;;;;;;;1026685;28;891;-41
2022/02/09 02:04:16;;;;;;;;;;;;;;;;;;1026607;28;1170;-40
2022/02/09 02:04:49;;;;;;;;;;;;;;;;;;1026709;28;685;-42
2022/02/09 02:05:20;;;;;;;;;;;;;;;;;;1026568;28;1117;-40
2022/02/09 02:05:50;;;;;;;;;;;;;;;;;;1026590;28;906;-40
2022/02/09 02:06:21;;;;;;;;;;;;;;;;;;1026805;28;781;-41
2022/02/09 02:06:52;;;;;;;;;;;;;;;;;;1026569;28;1177;-40
2022/02/09 02:07:33;;;;;;;;;;;;;;;;;;1026572;28;1029;-40
2022/02/09 02:08:06;;;;;;;;;;;;;;;;;;1026646;28;994;-40
2022/02/09 02:08:37;;;;;;;;;;;;;;;;;;1026617;28;929;-41
2022/02/09 02:09:07;;;;;;;;;;;;;;;;;;1026680;28;2001;-40
2022/02/09 02:09:38;;;;;;;;;;;;;;;;;;1026566;28;1026;-41
2022/02/09 02:10:11;;;;;;;;;;;;;;;;;;1026283;28;938;-40
2022/02/09 02:11:36;;;;;;;;;;;;;;;;;;1026322;28;926;-40
2022/02/09 02:12:13;;;;;;;;;;;;;;;;;;1026406;28;946;-41
2022/02/09 02:12:52;;;;;;;;;;;;;;;;;;1026808;28;1080;-40
2022/02/09 02:13:38;;;;;;;;;;;;;;;;;;1030152;28;1127;-41
2022/02/09 02:14:47;;;;;;;;;;;;;;;;;;1030610;28;808;-41
2022/02/09 02:16:01;;;;;;;;;;;;;;;;;;1027322;28;934;-42
2022/02/09 02:16:43;;;;;;;;;;;;;;;;;;1026510;28;1314;-41
2022/02/09 02:18:13;;;;;;;;;;;;;;;;;;1017895;29;1292;-42
2022/02/09 02:18:48;;;;;;;;;;;;;;;;;;1026517;28;1263;-41
2022/02/09 02:19:32;;;;;;;;;;;;;;;;;;1026669;28;934;-41
2022/02/09 02:20:13;;;;;;;;;;;;;;;;;;1026641;28;1056;-41
2022/02/09 02:21:35;;;;;;;;;;;;;;;;;;1026561;28;926;-41
2022/02/09 02:23:24;;;;;;;;;;;;;;;;;;1026686;28;899;-41
2022/02/09 02:27:08;;;;;;;;;;;;;;;;;;1014112;29;967;-41
2022/02/09 02:29:12;;;;;;;;;;;;;;;;;;1015662;29;1926;-41
2022/02/09 02:31:18;;;;;;;;;;;;;;;;;;1025013;28;1174;-41
2022/02/09 02:33:18;;;;;;;;;;;;;;;;;;1031391;28;1754;-41
2022/02/09 02:35:08;;;;;;;;;;;;;;;;;;1031344;28;953;-41
2022/02/09 02:37:13;;;;;;;;;;;;;;;;;;1031432;28;935;-41
2022/02/09 02:44:42;;;;;;;;;;;;;;;;;;1027867;28;1071;-42
2022/02/09 02:58:04;;;;;;;;;;;;;;;;;;1031512;28;829;-41
2022/02/09 02:59:41;;;;;;;;;;;;;;;;;;1031376;28;795;-41
2022/02/09 03:09:58;;;;;;;;;;;;;;;;;;1031098;28;974;-40
2022/02/09 03:11:48;;;;;;;;;;;;;;;;;;1031268;28;1068;-40
2022/02/09 03:12:35;;;;;;;;;;;;;;;;;;1031296;28;915;-40
2022/02/09 03:13:13;;;;;;;;;;;;;;;;;;1031111;28;1615;-40
2022/02/09 03:13:54;;;;;;;;;;;;;;;;;;1031372;28;1140;-41
2022/02/09 03:14:32;;;;;;;;;;;;;;;;;;1031200;28;982;-40
2022/02/09 03:15:59;;;;;;;;;;;;;;;;;;1031168;28;807;-40
2022/02/09 03:16:36;;;;;;;;;;;;;;;;;;1031344;28;1073;-40
2022/02/09 03:17:12;;;;;;;;;;;;;;;;;;1031051;28;961;-41
2022/02/09 03:17:47;;;;;;;;;;;;;;;;;;1031063;28;934;-41
2022/02/09 03:19:41;;;;;;;;;;;;;;;;;;1031206;28;1363;-41
2022/02/09 03:21:00;;;;;;;;;;;;;;;;;;1030972;28;962;-41
2022/02/09 03:21:43;;;;;;;;;;;;;;;;;;1031215;28;942;-41
2022/02/09 03:24:14;;;;;;;;;;;;;;;;;;1019186;28;1083;-42
2022/02/09 03:42:42;;;;;;;;;;;;;;;;;;1031119;28;1100;-41
2022/02/09 03:51:52;;;;;;;;;;;;;;;;;;1031101;28;974;-40
2022/02/09 03:54:02;;;;;;;;;;;;;;;;;;1031066;28;883;-41
2022/02/09 03:56:11;;;;;;;;;;;;;;;;;;1030899;28;903;-40
2022/02/09 03:57:28;;;;;;;;;;;;;;;;;;1031050;28;847;-41
2022/02/09 03:57:58;;;;;;;;;;;;;;;;;;1031051;28;1045;-39
2022/02/09 03:58:29;;;;;;;;;;;;;;;;;;1031001;28;870;-41
2022/02/09 03:58:59;;;;;;;;;;;;;;;;;;1030913;28;946;-40
2022/02/09 03:59:32;;;;;;;;;;;;;;;;;;1031113;28;939;-41
2022/02/09 04:00:03;;;;;;;;;;;;;;;;;;1030964;28;958;-41
2022/02/09 04:00:37;;;;;;;;;;;;;;;;;;1031003;28;1098;-41
2022/02/09 04:01:08;;;;;;;;;;;;;;;;;;1030846;28;784;-37
2022/02/09 04:01:39;;;;;;;;;;;;;;;;;;1031100;28;998;-40
2022/02/09 04:02:11;;;;;;;;;;;;;;;;;;1030935;28;895;-40
2022/02/09 04:02:45;;;;;;;;;;;;;;;;;;1031034;28;1838;-40
2022/02/09 04:03:20;;;;;;;;;;;;;;;;;;1030909;28;987;-40
2022/02/09 04:03:50;;;;;;;;;;;;;;;;;;1030990;28;1168;-40
2022/02/09 04:04:21;;;;;;;;;;;;;;;;;;1030912;28;1388;-40
2022/02/09 04:04:55;;;;;;;;;;;;;;;;;;1031049;28;856;-40
2022/02/09 04:05:27;;;;;;;;;;;;;;;;;;1031060;28;970;-40
2022/02/09 04:05:57;;;;;;;;;;;;;;;;;;1031000;28;989;-41
2022/02/09 04:06:33;;;;;;;;;;;;;;;;;;1030968;28;1043;-40
2022/02/09 04:07:03;;;;;;;;;;;;;;;;;;1030910;28;1254;-41
2022/02/09 04:07:34;;;;;;;;;;;;;;;;;;1030917;28;812;-40
2022/02/09 04:08:05;;;;;;;;;;;;;;;;;;1030888;28;1048;-40
2022/02/09 04:08:43;;;;;;;;;;;;;;;;;;1031076;28;1026;-40
2022/02/09 04:09:16;;;;;;;;;;;;;;;;;;1030973;28;1313;-40
2022/02/09 04:09:50;;;;;;;;;;;;;;;;;;1030977;28;950;-40
2022/02/09 04:10:25;;;;;;;;;;;;;;;;;;1030941;28;827;-40
2022/02/09 04:11:07;;;;;;;;;;;;;;;;;;1031094;28;1022;-41
2022/02/09 04:11:45;;;;;;;;;;;;;;;;;;1030806;28;927;-41
2022/02/09 04:14:06;;;;;;;;;;;;;;;;;;1022298;29;1733;-42
2022/02/09 04:14:48;;;;;;;;;;;;;;;;;;1022524;29;999;-41
2022/02/09 04:16:09;;;;;;;;;;;;;;;;;;1026324;28;1267;-40
2022/02/09 04:19:15;;;;;;;;;;;;;;;;;;1030912;28;947;-40
2022/02/09 04:36:01;;;;;;;;;;;;;;;;;;1029248;28;1001;-41
2022/02/09 04:36:12;;;;;;;;;;;;;;;;;;1030804;28;1061;-41
2022/02/09 04:38:51;;;;;;;;;;;;;;;;;;1030747;28;859;-40
2022/02/09 04:39:27;;;;;;;;;;;;;;;;;;1030625;28;1001;-41
2022/02/09 04:40:10;;;;;;;;;;;;;;;;;;1030785;28;946;-41
2022/02/09 04:42:31;;;;;;;;;;;;;;;;;;1030792;28;906;-42
2022/02/09 04:44:48;;;;;;;;;;;;;;;;;;1030689;28;978;-43
2022/02/09 04:45:56;;;;;;;;;;;;;;;;;;1030888;28;1641;-41
2022/02/09 04:48:32;;;;;;;;;;;;;;;;;;1030901;28;954;-40
2022/02/09 04:49:38;;;;;;;;;;;;;;;;;;1030872;28;1914;-40
2022/02/09 04:50:20;;;;;;;;;;;;;;;;;;1030814;28;1033;-40
2022/02/09 04:51:00;;;;;;;;;;;;;;;;;;1030560;28;923;-41
2022/02/09 04:53:16;;;;;;;;;;;;;;;;;;1025884;28;1161;-40
2022/02/09 04:55:09;;;;;;;;;;;;;;;;;;1022127;29;831;-40
2022/02/09 04:55:49;;;;;;;;;;;;;;;;;;1024028;28;990;-40
2022/02/09 04:57:00;;;;;;;;;;;;;;;;;;1025996;28;962;-41
2022/02/09 04:57:38;;;;;;;;;;;;;;;;;;1026048;28;938;-40
2022/02/09 04:58:22;;;;;;;;;;;;;;;;;;1026153;28;1026;-41
2022/02/09 04:59:17;;;;;;;;;;;;;;;;;;1030869;28;1062;-40
2022/02/09 05:00:42;;;;;;;;;;;;;;;;;;1030671;28;855;-40
2022/02/09 05:01:37;;;;;;;;;;;;;;;;;;1030936;28;1005;-40
2022/02/09 05:17:58;;;;;;;;;;;;;;;;;;1026622;28;988;-40
2022/02/09 05:21:54;;;;;;;;;;;;;;;;;;1026483;28;1065;-40
2022/02/09 05:23:59;;;;;;;;;;;;;;;;;;1026608;28;824;-40
2022/02/09 05:24:45;;;;;;;;;;;;;;;;;;1026601;28;949;-40
2022/02/09 05:25:39;;;;;;;;;;;;;;;;;;1026607;28;935;-40
2022/02/09 05:26:09;;;;;;;;;;;;;;;;;;1026541;28;1464;-40
2022/02/09 05:26:50;;;;;;;;;;;;;;;;;;1026492;28;1625;-40
2022/02/09 05:27:33;;;;;;;;;;;;;;;;;;1026467;28;920;-40
2022/02/09 05:28:16;;;;;;;;;;;;;;;;;;1026511;28;911;-40
2022/02/09 05:28:46;;;;;;;;;;;;;;;;;;1029471;28;1149;-40
2022/02/09 05:29:16;;;;;;;;;;;;;;;;;;1030561;28;2029;-40
2022/02/09 05:29:47;;;;;;;;;;;;;;;;;;1030553;28;930;-40
2022/02/09 05:30:17;;;;;;;;;;;;;;;;;;1030605;28;1228;-39
2022/02/09 05:30:51;;;;;;;;;;;;;;;;;;1030435;28;894;-40
2022/02/09 05:31:21;;;;;;;;;;;;;;;;;;1030572;28;1010;-41
2022/02/09 05:31:52;;;;;;;;;;;;;;;;;;1030714;28;950;-40
2022/02/09 05:32:22;;;;;;;;;;;;;;;;;;1030555;28;1144;-40
2022/02/09 05:32:52;;;;;;;;;;;;;;;;;;1030548;28;904;-40
2022/02/09 05:33:23;;;;;;;;;;;;;;;;;;1030554;28;899;-39
2022/02/09 05:33:53;;;;;;;;;;;;;;;;;;1030626;28;1096;-40
2022/02/09 05:34:23;;;;;;;;;;;;;;;;;;1030669;28;847;-40
2022/02/09 05:34:54;;;;;;;;;;;;;;;;;;1030675;28;929;-40
2022/02/09 05:35:26;;;;;;;;;;;;;;;;;;1030403;28;959;-40
2022/02/09 05:35:56;;;;;;;;;;;;;;;;;;1030552;28;895;-40
2022/02/09 05:36:26;;;;;;;;;;;;;;;;;;1030599;28;891;-40
2022/02/09 05:37:00;;;;;;;;;;;;;;;;;;1030821;28;978;-40
2022/02/09 05:37:31;;;;;;;;;;;;;;;;;;1030310;28;959;-41
2022/02/09 05:38:01;;;;;;;;;;;;;;;;;;1030740;28;918;-40
2022/02/09 05:38:32;;;;;;;;;;;;;;;;;;1030508;28;1286;-39
2022/02/09 05:39:03;;;;;;;;;;;;;;;;;;1030629;28;926;-41
2022/02/09 05:39:33;;;;;;;;;;;;;;;;;;1030738;28;1041;-40
2022/02/09 05:40:04;;;;;;;;;;;;;;;;;;1030585;28;922;-40
2022/02/09 05:40:34;;;;;;;;;;;;;;;;;;1030566;28;994;-40
2022/02/09 05:41:05;;;;;;;;;;;;;;;;;;1030669;28;939;-40
2022/02/09 05:41:42;;;;;;;;;;;;;;;;;;1030576;28;907;-40
2022/02/09 05:42:12;;;;;;;;;;;;;;;;;;1030667;28;946;-41
2022/02/09 05:42:42;;;;;;;;;;;;;;;;;;1030460;28;946;-40
2022/02/09 05:43:13;;;;;;;;;;;;;;;;;;1030813;28;911;-40
2022/02/09 05:43:44;;;;;;;;;;;;;;;;;;1030460;28;955;-39
2022/02/09 05:44:15;;;;;;;;;;;;;;;;;;1030738;28;900;-40
2022/02/09 05:44:45;;;;;;;;;;;;;;;;;;1030517;28;827;-39
2022/02/09 05:45:17;;;;;;;;;;;;;;;;;;1030670;28;1077;-40
2022/02/09 05:46:12;;;;;;;;;;;;;;;;;;1030538;28;872;-41
2022/02/09 05:47:59;;;;;;;;;;;;;;;;;;1029844;28;1311;-40
2022/02/09 05:49:41;;;;;;;;;;;;;;;;;;1030587;28;1973;-40
2022/02/09 05:51:04;;;;;;;;;;;;;;;;;;1030402;28;946;-39
2022/02/09 05:52:02;;;;;;;;;;;;;;;;;;1030765;28;979;-40
2022/02/09 05:52:53;;;;;;;;;;;;;;;;;;1030175;28;1443;-40
2022/02/09 05:53:25;;;;;;;;;;;;;;;;;;1030314;28;1424;-40
2022/02/09 05:54:05;;;;;;;;;;;;;;;;;;1030562;28;895;-40
2022/02/09 05:57:13;;;;;;;;;;;;;;;;;;1030743;28;1085;-40
2022/02/09 05:57:26;;;;;;;;;;;;;;;;;;1017830;29;1071;-40
2022/02/09 05:58:07;;;;;;;;;;;;;;;;;;1030578;28;1069;-39
2022/02/09 05:58:46;;;;;;;;;;;;;;;;;;1030330;28;891;-40
2022/02/09 05:59:38;;;;;;;;;;;;;;;;;;1030742;28;1056;-40
2022/02/09 06:00:08;;;;;;;;;;;;;;;;;;1030194;28;1538;-40
2022/02/09 06:00:47;;;;;;;;;;;;;;;;;;1030537;28;968;-41
2022/02/09 06:01:18;;;;;;;;;;;;;;;;;;1030516;28;815;-40
2022/02/09 06:01:49;;;;;;;;;;;;;;;;;;1030640;28;986;-40
2022/02/09 06:02:21;;;;;;;;;;;;;;;;;;1030501;28;907;-40
2022/02/09 06:02:51;;;;;;;;;;;;;;;;;;1030510;28;1021;-40
2022/02/09 06:03:22;;;;;;;;;;;;;;;;;;1031289;28;1085;-41
2022/02/09 06:03:52;;;;;;;;;;;;;;;;;;1031341;28;812;-40
2022/02/09 06:04:23;;;;;;;;;;;;;;;;;;1031208;28;1279;-39
2022/02/09 06:04:53;;;;;;;;;;;;;;;;;;1031254;28;864;-40
2022/02/09 06:05:23;;;;;;;;;;;;;;;;;;1031423;28;966;-40
2022/02/09 06:05:54;;;;;;;;;;;;;;;;;;1031435;28;780;-40
2022/02/09 06:06:24;;;;;;;;;;;;;;;;;;1031323;28;942;-40
2022/02/09 06:06:54;;;;;;;;;;;;;;;;;;1031334;28;832;-40
2022/02/09 06:07:25;;;;;;;;;;;;;;;;;;1031289;28;1102;-40
2022/02/09 06:07:55;;;;;;;;;;;;;;;;;;1031215;28;867;-40
2022/02/09 06:08:26;;;;;;;;;;;;;;;;;;1031353;28;1094;-40
2022/02/09 06:08:57;;;;;;;;;;;;;;;;;;1030903;28;1922;-41
2022/02/09 06:09:27;;;;;;;;;;;;;;;;;;1031482;28;986;-40
2022/02/09 06:09:58;;;;;;;;;;;;;;;;;;1031252;28;990;-40
2022/02/09 06:10:31;;;;;;;;;;;;;;;;;;1031297;28;882;-40
2022/02/09 06:11:23;;;;;;;;;;;;;;;;;;1031317;28;953;-40
2022/02/09 06:13:13;;;;;;;;;;;;;;;;;;1022608;29;1114;-39
2022/02/09 06:13:53;;;;;;;;;;;;;;;;;;1031360;28;963;-40
2022/02/09 06:15:47;;;;;;;;;;;;;;;;;;1031104;28;899;-40
2022/02/09 06:19:40;;;;;;;;;;;;;;;;;;1031095;28;1204;-40
2022/02/09 06:19:42;;;;;;;;;;;;;;;;;;1022439;29;1232;-41
2022/02/09 06:20:13;;;;;;;;;;;;;;;;;;1025661;28;1104;-40
2022/02/09 06:20:45;;;;;;;;;;;;;;;;;;1031061;28;935;-41
2022/02/09 06:21:19;;;;;;;;;;;;;;;;;;1031171;28;1011;-41
2022/02/09 06:21:49;;;;;;;;;;;;;;;;;;1031032;28;1158;-39
2022/02/09 06:22:21;;;;;;;;;;;;;;;;;;1031281;28;887;-41
2022/02/09 06:22:51;;;;;;;;;;;;;;;;;;1031172;28;795;-41
2022/02/09 06:23:21;;;;;;;;;;;;;;;;;;1031260;28;962;-41
2022/02/09 06:23:52;;;;;;;;;;;;;;;;;;1031231;28;946;-42
2022/02/09 06:24:22;;;;;;;;;;;;;;;;;;1031193;28;986;-40
2022/02/09 06:24:52;;;;;;;;;;;;;;;;;;1031212;28;1664;-41
2022/02/09 06:25:23;;;;;;;;;;;;;;;;;;1031279;28;886;-40
2022/02/09 06:25:54;;;;;;;;;;;;;;;;;;1031259;28;1059;-40
2022/02/09 06:26:24;;;;;;;;;;;;;;;;;;1031134;28;847;-41
2022/02/09 06:26:54;;;;;;;;;;;;;;;;;;1031203;28;984;-42
2022/02/09 06:27:25;;;;;;;;;;;;;;;;;;1030990;28;969;-40
2022/02/09 06:27:55;;;;;;;;;;;;;;;;;;1031358;28;923;-40
2022/02/09 06:28:28;;;;;;;;;;;;;;;;;;1031211;28;1162;-40
2022/02/09 06:28:58;;;;;;;;;;;;;;;;;;1030977;28;1906;-40
2022/02/09 06:29:28;;;;;;;;;;;;;;;;;;1031357;28;1022;-40
2022/02/09 06:29:59;;;;;;;;;;;;;;;;;;1031114;28;827;-40
2022/02/09 06:30:29;;;;;;;;;;;;;;;;;;1031213;28;970;-41
2022/02/09 06:31:00;;;;;;;;;;;;;;;;;;1031207;28;935;-40
2022/02/09 06:31:32;;;;;;;;;;;;;;;;;;1031178;28;1091;-40
2022/02/09 06:32:08;;;;;;;;;;;;;;;;;;1031151;28;939;-41
2022/02/09 06:32:38;;;;;;;;;;;;;;;;;;1031153;28;899;-41
2022/02/09 06:33:09;;;;;;;;;;;;;;;;;;1031285;28;967;-40
2022/02/09 06:33:41;;;;;;;;;;;;;;;;;;1031306;28;811;-40
2022/02/09 06:34:17;;;;;;;;;;;;;;;;;;1031177;28;871;-40
2022/02/09 06:34:48;;;;;;;;;;;;;;;;;;1031165;28;955;-41
2022/02/09 06:35:19;;;;;;;;;;;;;;;;;;1031196;28;950;-40
2022/02/09 06:35:50;;;;;;;;;;;;;;;;;;1031358;28;986;-40
2022/02/09 06:36:24;;;;;;;;;;;;;;;;;;1031157;28;839;-40
2022/02/09 06:37:00;;;;;;;;;;;;;;;;;;1031133;28;887;-40
2022/02/09 06:37:41;;;;;;;;;;;;;;;;;;1031259;28;939;-40
2022/02/09 06:38:13;;;;;;;;;;;;;;;;;;1031157;28;835;-40
2022/02/09 06:38:43;;;;;;;;;;;;;;;;;;1031192;28;871;-40
2022/02/09 06:39:15;;;;;;;;;;;;;;;;;;1031258;28;859;-40
2022/02/09 06:39:49;;;;;;;;;;;;;;;;;;1031198;28;985;-40
2022/02/09 06:40:20;;;;;;;;;;;;;;;;;;1031068;28;902;-41
2022/02/09 06:40:56;;;;;;;;;;;;;;;;;;1031128;28;886;-40
2022/02/09 06:41:26;;;;;;;;;;;;;;;;;;1031266;28;878;-40
2022/02/09 06:41:59;;;;;;;;;;;;;;;;;;1031145;28;1118;-40
2022/02/09 06:42:30;;;;;;;;;;;;;;;;;;1031279;28;812;-40
2022/02/09 06:43:01;;;;;;;;;;;;;;;;;;1031138;28;899;-40
2022/02/09 06:43:32;;;;;;;;;;;;;;;;;;1031166;28;1089;-41
2022/02/09 06:44:03;;;;;;;;;;;;;;;;;;1031034;28;1042;-41
2022/02/09 06:44:34;;;;;;;;;;;;;;;;;;1031313;28;895;-40
2022/02/09 06:45:14;;;;;;;;;;;;;;;;;;1031072;28;1013;-41
2022/02/09 06:45:45;;;;;;;;;;;;;;;;;;1031036;28;1737;-40
2022/02/09 06:46:15;;;;;;;;;;;;;;;;;;1031344;28;1045;-40
2022/02/09 06:46:46;;;;;;;;;;;;;;;;;;1031195;28;863;-40
2022/02/09 06:47:21;;;;;;;;;;;;;;;;;;1031210;28;1235;-40
2022/02/09 06:47:51;;;;;;;;;;;;;;;;;;1031245;28;950;-40
2022/02/09 06:48:22;;;;;;;;;;;;;;;;;;1031163;28;1075;-40
2022/02/09 06:48:52;;;;;;;;;;;;;;;;;;1031101;28;1906;-40
2022/02/09 06:49:23;;;;;;;;;;;;;;;;;;1031127;28;867;-40
2022/02/09 06:50:00;;;;;;;;;;;;;;;;;;1031049;28;1267;-40
2022/02/09 06:51:08;;;;;;;;;;;;;;;;;;1031008;28;954;-41
2022/02/09 06:51:40;;;;;;;;;;;;;;;;;;1031203;28;1419;-40
2022/02/09 06:52:10;;;;;;;;;;;;;;;;;;1031223;28;1074;-40
2022/02/09 06:52:45;;;;;;;;;;;;;;;;;;1031162;28;962;-41
2022/02/09 06:53:30;;;;;;;;;;;;;;;;;;1031112;28;1001;-41
2022/02/09 06:54:09;;;;;;;;;;;;;;;;;;1030865;28;939;-41
2022/02/09 06:54:54;;;;;;;;;;;;;;;;;;1031237;28;1148;-41
2022/02/09 06:55:25;;;;;;;;;;;;;;;;;;1031015;28;963;-40
2022/02/09 06:55:56;;;;;;;;;;;;;;;;;;1031110;28;960;-41
2022/02/09 06:56:42;;;;;;;;;;;;;;;;;;1031167;28;1008;-41
2022/02/09 06:57:27;;;;;;;;;;;;;;;;;;1031171;28;931;-40
2022/02/09 06:58:01;;;;;;;;;;;;;;;;;;1030968;28;922;-40
2022/02/09 06:59:28;;;;;;;;;;;;;;;;;;1031016;28;974;-41
2022/02/09 06:59:58;;;;;;;;;;;;;;;;;;1031201;28;1116;-41
2022/02/09 07:00:29;;;;;;;;;;;;;;;;;;1030944;28;1631;-41
2022/02/09 07:01:00;;;;;;;;;;;;;;;;;;1031171;28;904;-40
2022/02/09 07:01:31;;;;;;;;;;;;;;;;;;1030997;28;910;-41
2022/02/09 07:02:04;;;;;;;;;;;;;;;;;;1031061;28;982;-40
2022/02/09 07:02:35;;;;;;;;;;;;;;;;;;1031206;28;860;-40
2022/02/09 07:03:05;;;;;;;;;;;;;;;;;;1030903;28;958;-41
2022/02/09 07:03:35;;;;;;;;;;;;;;;;;;1031164;28;912;-41
2022/02/09 07:04:05;;;;;;;;;;;;;;;;;;1030800;28;1295;-41
2022/02/09 07:04:36;;;;;;;;;;;;;;;;;;1031273;28;1010;-40
2022/02/09 07:05:07;;;;;;;;;;;;;;;;;;1030963;28;966;-41
2022/02/09 07:05:38;;;;;;;;;;;;;;;;;;1031125;28;1748;-40
2022/02/09 07:06:08;;;;;;;;;;;;;;;;;;1031028;28;906;-41
2022/02/09 07:06:39;;;;;;;;;;;;;;;;;;1031203;28;884;-41
2022/02/09 07:07:10;;;;;;;;;;;;;;;;;;1030681;28;1173;-42
2022/02/09 07:07:41;;;;;;;;;;;;;;;;;;1031358;28;1001;-41
2022/02/09 07:08:11;;;;;;;;;;;;;;;;;;1031060;28;953;-41
2022/02/09 07:08:42;;;;;;;;;;;;;;;;;;1031035;28;887;-40
2022/02/09 07:09:12;;;;;;;;;;;;;;;;;;1031126;28;1914;-40
2022/02/09 07:09:43;;;;;;;;;;;;;;;;;;1030922;28;871;-41
2022/02/09 07:10:13;;;;;;;;;;;;;;;;;;1026584;28;919;-40
2022/02/09 07:10:44;;;;;;;;;;;;;;;;;;1026683;28;1331;-41
2022/02/09 07:11:14;;;;;;;;;;;;;;;;;;1026661;28;1077;-40
2022/02/09 07:11:45;;;;;;;;;;;;;;;;;;1026819;28;938;-41
2022/02/09 07:12:15;;;;;;;;;;;;;;;;;;1030916;28;926;-41
2022/02/09 07:12:46;;;;;;;;;;;;;;;;;;1031069;28;930;-41
2022/02/09 07:13:18;;;;;;;;;;;;;;;;;;1030995;28;970;-41
2022/02/09 07:13:48;;;;;;;;;;;;;;;;;;1030939;28;879;-41
2022/02/09 07:14:23;;;;;;;;;;;;;;;;;;1030789;28;1282;-41
2022/02/09 07:14:54;;;;;;;;;;;;;;;;;;1031155;28;1074;-41
2022/02/09 07:15:32;;;;;;;;;;;;;;;;;;1030925;28;895;-41
2022/02/09 07:16:05;;;;;;;;;;;;;;;;;;1031103;28;879;-41
2022/02/09 07:16:36;;;;;;;;;;;;;;;;;;1031046;28;973;-41
2022/02/09 07:17:07;;;;;;;;;;;;;;;;;;1031161;28;824;-41
2022/02/09 07:17:37;;;;;;;;;;;;;;;;;;1030897;28;1017;-40
2022/02/09 07:18:11;;;;;;;;;;;;;;;;;;1031039;28;808;-40
2022/02/09 07:18:43;;;;;;;;;;;;;;;;;;1031078;28;866;-41
2022/02/09 07:19:14;;;;;;;;;;;;;;;;;;1030975;28;1054;-41
2022/02/09 07:19:51;;;;;;;;;;;;;;;;;;1031213;28;847;-41
2022/02/09 07:20:26;;;;;;;;;;;;;;;;;;1030861;28;884;-40
2022/02/09 07:21:03;;;;;;;;;;;;;;;;;;1030935;28;855;-41
2022/02/09 07:21:36;;;;;;;;;;;;;;;;;;1031111;28;898;-40
2022/02/09 07:22:07;;;;;;;;;;;;;;;;;;1031000;28;1436;-40
2022/02/09 07:22:38;;;;;;;;;;;;;;;;;;1030944;28;851;-41
2022/02/09 07:23:19;;;;;;;;;;;;;;;;;;1031106;28;965;-38
2022/02/09 07:23:52;;;;;;;;;;;;;;;;;;1031055;28;873;-40
2022/02/09 07:24:22;;;;;;;;;;;;;;;;;;1030918;28;907;-39
2022/02/09 07:25:05;;;;;;;;;;;;;;;;;;1031179;28;1087;-40
2022/02/09 07:25:35;;;;;;;;;;;;;;;;;;1030798;28;858;-41
2022/02/09 07:26:49;;;;;;;;;;;;;;;;;;1030921;28;984;-40
2022/02/09 07:27:40;;;;;;;;;;;;;;;;;;1030987;28;820;-41
2022/02/09 07:28:10;;;;;;;;;;;;;;;;;;1030988;28;918;-40
2022/02/09 07:28:41;;;;;;;;;;;;;;;;;;1026463;28;1647;-40
2022/02/09 07:29:11;;;;;;;;;;;;;;;;;;1026674;28;1911;-40
2022/02/09 07:29:42;;;;;;;;;;;;;;;;;;1026529;28;1075;-40
2022/02/09 07:30:12;;;;;;;;;;;;;;;;;;1026837;28;784;-41
2022/02/09 07:30:43;;;;;;;;;;;;;;;;;;1030878;28;986;-40
2022/02/09 07:31:14;;;;;;;;;;;;;;;;;;1026614;28;1391;-40
2022/02/09 07:31:45;;;;;;;;;;;;;;;;;;1026713;28;867;-41
2022/02/09 07:32:16;;;;;;;;;;;;;;;;;;1026626;28;1714;-41
2022/02/09 07:32:46;;;;;;;;;;;;;;;;;;1026948;28;922;-41
2022/02/09 07:33:17;;;;;;;;;;;;;;;;;;1030899;28;990;-41
2022/02/09 07:33:47;;;;;;;;;;;;;;;;;;1030865;28;950;-40
2022/02/09 07:34:18;;;;;;;;;;;;;;;;;;1031171;28;1088;-41
2022/02/09 07:34:48;;;;;;;;;;;;;;;;;;1030895;28;1723;-40
2022/02/09 07:35:19;;;;;;;;;;;;;;;;;;1030894;28;951;-41
2022/02/09 07:35:49;;;;;;;;;;;;;;;;;;1031065;28;985;-42
2022/02/09 07:36:19;;;;;;;;;;;;;;;;;;1030959;28;831;-41
2022/02/09 07:36:50;;;;;;;;;;;;;;;;;;1031093;28;884;-40
2022/02/09 07:37:20;;;;;;;;;;;;;;;;;;1030822;28;915;-41
2022/02/09 07:37:51;;;;;;;;;;;;;;;;;;1031110;28;906;-40
2022/02/09 07:38:25;;;;;;;;;;;;;;;;;;1030875;28;855;-40
2022/02/09 07:38:55;;;;;;;;;;;;;;;;;;1031100;28;894;-40
2022/02/09 07:39:26;;;;;;;;;;;;;;;;;;1030902;28;780;-40
2022/02/09 07:39:58;;;;;;;;;;;;;;;;;;1031073;28;1046;-41
2022/02/09 07:40:29;;;;;;;;;;;;;;;;;;1030761;28;1010;-40
2022/02/09 07:41:00;;;;;;;;;;;;;;;;;;1031060;28;951;-40
2022/02/09 07:41:31;;;;;;;;;;;;;;;;;;1030817;28;932;-41
2022/02/09 07:42:12;;;;;;;;;;;;;;;;;;1031030;28;894;-40
2022/02/09 07:42:48;;;;;;;;;;;;;;;;;;1026385;28;1169;-40
2022/02/09 07:43:26;;;;;;;;;;;;;;;;;;1026633;28;1019;-40
2022/02/09 07:45:39;;;;;;;;;;;;;;;;;;1026258;28;939;-40
2022/02/09 07:47:11;;;;;;;;;;;;;;;;;;1030664;28;954;-40
2022/02/09 07:48:00;;;;;;;;;;;;;;;;;;1030716;28;895;-40
2022/02/09 07:49:49;;;;;;;;;;;;;;;;;;1030788;28;1911;-40
2022/02/09 07:51:10;;;;;;;;;;;;;;;;;;1030712;28;938;-40
2022/02/09 07:51:52;;;;;;;;;;;;;;;;;;1030793;28;1253;-40
2022/02/09 07:52:25;;;;;;;;;;;;;;;;;;1030811;28;824;-40
2022/02/09 07:53:14;;;;;;;;;;;;;;;;;;1031103;28;891;-40
2022/02/09 07:53:58;;;;;;;;;;;;;;;;;;1030811;28;1065;-40
2022/02/09 07:54:29;;;;;;;;;;;;;;;;;;1031083;28;982;-41
2022/02/09 07:55:00;;;;;;;;;;;;;;;;;;1030874;28;808;-40
2022/02/09 07:55:30;;;;;;;;;;;;;;;;;;1031082;28;923;-40
2022/02/09 07:56:01;;;;;;;;;;;;;;;;;;1030792;28;1421;-40
2022/02/09 07:56:35;;;;;;;;;;;;;;;;;;1031125;28;971;-40
2022/02/09 07:57:07;;;;;;;;;;;;;;;;;;1030749;28;974;-41
2022/02/09 07:57:37;;;;;;;;;;;;;;;;;;1030995;28;815;-40
2022/02/09 07:58:07;;;;;;;;;;;;;;;;;;1031004;28;993;-41
2022/02/09 07:58:38;;;;;;;;;;;;;;;;;;1030705;28;886;-41
2022/02/09 07:59:10;;;;;;;;;;;;;;;;;;1031126;28;847;-41
2022/02/09 07:59:40;;;;;;;;;;;;;;;;;;1030705;28;1625;-41
2022/02/09 08:00:13;;;;;;;;;;;;;;;;;;1030975;28;1001;-41
2022/02/09 08:00:46;;;;;;;;;;;;;;;;;;1030761;28;860;-41
2022/02/09 08:01:16;;;;;;;;;;;;;;;;;;1031002;28;950;-40
2022/02/09 08:01:47;;;;;;;;;;;;;;;;;;1030914;28;1080;-40
2022/02/09 08:02:17;;;;;;;;;;;;;;;;;;1030866;28;932;-40
2022/02/09 08:02:52;;;;;;;;;;;;;;;;;;1030876;28;914;-40
2022/02/09 08:03:22;;;;;;;;;;;;;;;;;;1030909;28;748;-41
2022/02/09 08:03:53;;;;;;;;;;;;;;;;;;1030853;28;966;-40
2022/02/09 08:04:23;;;;;;;;;;;;;;;;;;1030798;28;1249;-40
2022/02/09 08:04:54;;;;;;;;;;;;;;;;;;1030879;28;1050;-40
2022/02/09 08:05:24;;;;;;;;;;;;;;;;;;1030829;28;913;-40
2022/02/09 08:05:55;;;;;;;;;;;;;;;;;;1030989;28;981;-40
2022/02/09 08:06:25;;;;;;;;;;;;;;;;;;1030862;28;1058;-40
2022/02/09 08:06:57;;;;;;;;;;;;;;;;;;1030774;28;906;-41
2022/02/09 08:07:28;;;;;;;;;;;;;;;;;;1022717;29;950;-40
2022/02/09 08:07:58;;;;;;;;;;;;;;;;;;1022486;29;819;-40
2022/02/09 08:08:32;;;;;;;;;;;;;;;;;;1022640;28;949;-41